createdAt,value
2022-10-22T00:00:47.309Z,12.30
2022-10-22T00:03:14.471Z,13.20
2022-10-22T00:05:41.684Z,11.05
2022-10-22T00:08:08.944Z,14.02
2022-10-22T00:10:38.296Z,10.00
2022-10-22T00:13:05.687Z,15.63
2022-10-22T00:15:32.980Z,12.45
2022-10-22T00:18:00.197Z,11.13
2022-10-22T00:20:27.380Z,16.90
2022-10-22T00:22:54.677Z,13.70
2022-10-22T00:25:22.056Z,11.23
2022-10-22T00:27:49.245Z,10.73
2022-10-22T00:30:16.606Z,14.70
2022-10-22T00:32:43.882Z,10.20
2022-10-22T00:35:11.081Z,11.32
2022-10-22T00:37:38.424Z,11.23
2022-10-22T00:40:05.896Z,12.57
2022-10-22T00:42:33.121Z,12.10
2022-10-22T00:45:12.512Z,10.98
2022-10-22T00:47:41.485Z,10.27
2022-10-22T00:50:11.629Z,11.80
2022-10-22T00:52:39.546Z,11.93
2022-10-22T00:55:07.280Z,11.32
2022-10-22T00:57:35.383Z,11.65
2022-10-22T01:00:02.763Z,12.13
2022-10-22T01:02:29.987Z,11.38
2022-10-22T01:04:57.198Z,12.15
2022-10-22T01:07:25.095Z,12.68
2022-10-22T01:10:01.627Z,11.55
2022-10-22T01:12:40.869Z,11.63
2022-10-22T01:15:18.736Z,13.13
2022-10-22T01:18:12.072Z,9.85
2022-10-22T01:21:01.748Z,14.25
2022-10-22T01:23:48.323Z,11.82
2022-10-22T01:26:34.362Z,14.70
2022-10-22T01:29:01.752Z,10.85
2022-10-22T01:31:39.034Z,13.57
2022-10-22T01:34:08.864Z,17.67
2022-10-22T01:36:36.500Z,11.55
2022-10-22T01:39:04.521Z,12.23
2022-10-22T01:41:31.984Z,12.05
2022-10-22T01:43:59.174Z,16.65
2022-10-22T01:46:27.930Z,14.18
2022-10-22T01:49:04.416Z,12.38
2022-10-22T01:51:55.867Z,17.33
2022-10-22T01:54:32.325Z,22.48
2022-10-22T01:57:09.488Z,15.85
2022-10-22T01:59:45.687Z,12.38
2022-10-22T02:02:22.230Z,15.05
2022-10-22T02:04:51.352Z,16.15
2022-10-22T02:07:20.413Z,11.20
2022-10-22T02:09:48.447Z,17.85
2022-10-22T02:12:16.421Z,13.75
2022-10-22T02:14:44.540Z,14.43
2022-10-22T02:17:14.353Z,11.52
2022-10-22T02:19:41.527Z,12.43
2022-10-22T02:22:08.891Z,11.70
2022-10-22T02:24:36.336Z,13.18
2022-10-22T02:27:25.961Z,10.77
2022-10-22T02:29:58.224Z,12.50
2022-10-22T02:32:27.473Z,11.45
2022-10-22T02:34:56.091Z,13.23
2022-10-22T02:37:25.144Z,10.27
2022-10-22T02:39:52.970Z,12.13
2022-10-22T02:42:20.305Z,10.98
2022-10-22T02:44:47.503Z,12.15
2022-10-22T02:47:14.924Z,16.38
2022-10-22T02:49:42.404Z,10.93
2022-10-22T02:52:09.604Z,19.55
2022-10-22T02:54:36.762Z,12.10
2022-10-22T02:57:04.463Z,11.90
2022-10-22T02:59:31.768Z,12.07
2022-10-22T03:01:58.937Z,11.10
2022-10-22T03:04:26.149Z,14.38
2022-10-22T03:06:53.380Z,10.70
2022-10-22T03:09:22.743Z,15.68
2022-10-22T03:11:52.075Z,12.95
2022-10-22T03:14:19.626Z,14.52
2022-10-22T03:16:46.913Z,10.20
2022-10-22T03:19:14.075Z,11.18
2022-10-22T03:21:43.470Z,10.80
2022-10-22T03:24:14.107Z,10.07
2022-10-22T03:26:42.038Z,13.57
2022-10-22T03:29:10.968Z,13.77
2022-10-22T03:31:38.286Z,12.20
2022-10-22T03:34:05.452Z,11.82
2022-10-22T03:36:33.334Z,11.05
2022-10-22T03:39:01.583Z,18.73
2022-10-22T03:41:29.339Z,16.55
2022-10-22T03:43:57.469Z,11.85
2022-10-22T03:46:24.800Z,16.60
2022-10-22T03:48:51.992Z,11.80
2022-10-22T03:51:19.623Z,13.38
2022-10-22T03:53:46.897Z,14.45
2022-10-22T03:56:14.643Z,13.73
2022-10-22T03:58:42.365Z,19.40
2022-10-22T04:01:11.216Z,16.08
2022-10-22T04:03:38.472Z,15.05
2022-10-22T04:06:07.025Z,15.20
2022-10-22T04:08:34.292Z,13.00
2022-10-22T04:11:01.566Z,14.65
2022-10-22T04:13:28.787Z,17.65
2022-10-22T04:15:56.145Z,18.40
2022-10-22T04:18:23.851Z,14.20
2022-10-22T04:20:52.767Z,18.17
2022-10-22T04:23:19.963Z,18.35
2022-10-22T04:25:47.212Z,14.35
2022-10-22T04:28:14.437Z,17.60
2022-10-22T04:30:41.798Z,13.23
2022-10-22T04:33:08.949Z,14.63
2022-10-22T04:35:38.830Z,17.63
2022-10-22T04:38:06.095Z,17.42
2022-10-22T04:40:33.351Z,19.65
2022-10-22T04:43:00.597Z,20.67
2022-10-22T04:45:27.965Z,22.92
2022-10-22T04:47:55.225Z,18.98
2022-10-22T04:50:22.426Z,23.52
2022-10-22T04:52:49.608Z,22.77
2022-10-22T04:55:16.907Z,25.60
2022-10-22T04:57:44.295Z,28.08
2022-10-22T05:00:11.783Z,20.90
2022-10-22T05:02:39.088Z,22.85
2022-10-22T05:05:06.327Z,18.38
2022-10-22T05:07:33.522Z,25.25
2022-10-22T05:10:02.274Z,23.90
2022-10-22T05:12:30.842Z,20.63
2022-10-22T05:14:58.341Z,19.73
2022-10-22T05:17:25.587Z,23.30
2022-10-22T05:19:53.204Z,24.05
2022-10-22T05:22:23.131Z,19.90
2022-10-22T05:24:50.448Z,26.17
2022-10-22T05:29:49.805Z,28.40
2022-10-22T05:32:17.088Z,26.88
2022-10-22T05:34:44.358Z,32.05
2022-10-22T05:37:11.560Z,35.38
2022-10-22T05:39:40.709Z,31.25
2022-10-22T05:42:07.927Z,36.13
2022-10-22T05:44:35.172Z,32.80
2022-10-22T05:47:02.519Z,38.78
2022-10-22T05:49:29.851Z,31.73
2022-10-22T05:51:57.055Z,40.58
2022-10-22T05:54:24.410Z,28.83
2022-10-22T05:56:51.615Z,35.33
2022-10-22T05:59:18.855Z,32.60
2022-10-22T06:01:46.055Z,38.70
2022-10-22T06:04:14.140Z,35.58
2022-10-22T06:06:51.575Z,42.95
2022-10-22T06:09:20.773Z,43.65
2022-10-22T06:11:48.446Z,47.78
2022-10-22T06:14:15.759Z,41.03
2022-10-22T06:16:45.278Z,57.00
2022-10-22T06:19:13.244Z,52.53
2022-10-22T06:21:40.624Z,46.85
2022-10-22T06:24:08.063Z,42.95
2022-10-22T06:26:35.231Z,58.92
2022-10-22T06:29:02.688Z,46.40
2022-10-22T06:31:36.532Z,47.03
2022-10-22T06:34:04.651Z,42.53
2022-10-22T06:36:31.907Z,50.55
2022-10-22T06:38:59.262Z,51.28
2022-10-22T06:41:28.746Z,51.70
2022-10-22T06:44:17.940Z,50.63
2022-10-22T06:46:45.244Z,56.17
2022-10-22T06:49:14.184Z,58.38
2022-10-22T06:51:41.529Z,65.65
2022-10-22T06:54:08.941Z,58.55
2022-10-22T06:56:36.191Z,54.22
2022-10-22T06:59:03.839Z,54.63
2022-10-22T07:01:32.792Z,56.78
2022-10-22T07:04:00.421Z,65.35
2022-10-22T07:06:28.865Z,57.15
2022-10-22T07:08:56.497Z,47.13
2022-10-22T07:11:25.144Z,49.65
2022-10-22T07:13:54.333Z,51.58
2022-10-22T07:16:21.573Z,46.80
2022-10-22T07:18:49.049Z,49.53
2022-10-22T07:21:17.840Z,61.92
2022-10-22T07:23:45.090Z,49.60
2022-10-22T07:26:24.800Z,52.42
2022-10-22T07:28:52.141Z,61.00
2022-10-22T07:31:19.769Z,52.97
2022-10-22T07:33:49.275Z,58.28
2022-10-22T07:36:20.228Z,59.10
2022-10-22T07:38:48.647Z,73.83
2022-10-22T07:41:16.573Z,60.85
2022-10-22T07:43:44.039Z,63.58
2022-10-22T07:46:11.642Z,68.88
2022-10-22T07:48:39.295Z,67.82
2022-10-22T07:51:06.660Z,64.93
2022-10-22T07:53:33.953Z,57.55
2022-10-22T07:56:03.409Z,56.13
2022-10-22T07:58:33.093Z,67.38
2022-10-22T08:01:01.376Z,61.60
2022-10-22T08:03:28.891Z,62.25
2022-10-22T08:05:56.189Z,64.65
2022-10-22T08:08:27.089Z,53.85
2022-10-22T08:10:58.832Z,49.55
2022-10-22T08:13:27.399Z,63.50
2022-10-22T08:15:57.394Z,55.58
2022-10-22T08:18:25.306Z,56.38
2022-10-22T08:20:52.680Z,55.00
2022-10-22T08:23:23.015Z,57.97
2022-10-22T08:25:53.939Z,54.17
2022-10-22T08:28:22.132Z,48.05
2022-10-22T08:30:49.970Z,51.10
2022-10-22T08:33:17.345Z,60.00
2022-10-22T08:35:49.268Z,53.58
2022-10-22T08:38:16.583Z,57.75
2022-10-22T08:43:36.523Z,59.72
2022-10-22T08:46:06.535Z,57.30
2022-10-22T08:48:51.387Z,53.70
2022-10-22T08:51:21.134Z,57.97
2022-10-22T08:54:07.623Z,46.72
2022-10-22T08:56:39.626Z,58.10
2022-10-22T08:59:12.857Z,48.97
2022-10-22T09:01:44.173Z,49.33
2022-10-22T09:04:30.435Z,50.90
2022-10-22T09:07:06.282Z,53.17
2022-10-22T09:09:44.176Z,53.08
2022-10-22T09:12:20.300Z,41.03
2022-10-22T09:14:47.905Z,39.17
2022-10-22T09:17:27.075Z,48.80
2022-10-22T09:20:12.789Z,53.65
2022-10-22T09:22:50.942Z,47.33
2022-10-22T09:25:25.925Z,41.50
2022-10-22T09:27:58.137Z,33.75
2022-10-22T09:30:26.908Z,51.65
2022-10-22T09:33:02.990Z,47.35
2022-10-22T09:35:49.272Z,41.08
2022-10-22T09:38:20.482Z,54.00
2022-10-22T09:40:55.463Z,46.70
2022-10-22T09:43:22.674Z,44.63
2022-10-22T09:45:56.254Z,43.25
2022-10-22T09:48:30.428Z,40.25
2022-10-22T09:51:19.142Z,41.15
2022-10-22T09:53:47.761Z,40.15
2022-10-22T09:56:21.893Z,36.45
2022-10-22T09:58:51.115Z,40.72
2022-10-22T10:01:22.613Z,41.95
2022-10-22T10:03:50.173Z,37.65
2022-10-22T10:06:21.549Z,35.22
2022-10-22T10:08:49.349Z,41.58
2022-10-22T10:11:29.229Z,34.53
2022-10-22T10:14:06.274Z,38.50
2022-10-22T10:16:52.509Z,34.83
2022-10-22T10:19:30.393Z,34.25
2022-10-22T10:22:06.654Z,34.17
2022-10-22T10:24:45.885Z,33.80
2022-10-22T10:27:20.764Z,35.90
2022-10-22T10:29:56.184Z,33.33
2022-10-22T10:32:42.143Z,31.85
2022-10-22T10:35:28.507Z,29.10
2022-10-22T10:38:14.258Z,31.23
2022-10-22T10:40:44.954Z,32.70
2022-10-22T10:43:15.506Z,38.33
2022-10-22T10:45:55.597Z,33.97
2022-10-22T10:48:23.775Z,32.30
2022-10-22T10:50:57.110Z,27.98
2022-10-22T10:53:27.329Z,30.15
2022-10-22T10:55:54.671Z,28.70
2022-10-22T10:58:24.835Z,33.78
2022-10-22T11:01:02.117Z,25.40
2022-10-22T11:03:41.630Z,26.88
2022-10-22T11:06:10.628Z,16.63
2022-10-22T11:08:39.951Z,21.23
2022-10-22T11:13:49.744Z,27.02
2022-10-22T11:16:16.917Z,28.00
2022-10-22T11:18:48.807Z,26.75
2022-10-22T11:24:03.434Z,19.48
2022-10-22T11:26:45.041Z,23.33
2022-10-22T11:29:13.421Z,34.08
2022-10-22T11:31:42.136Z,24.83
2022-10-22T11:34:33.234Z,25.52
2022-10-22T11:37:01.949Z,20.40
2022-10-22T11:39:41.677Z,19.05
2022-10-22T11:42:18.879Z,20.08
2022-10-22T11:44:47.574Z,19.25
2022-10-22T11:47:20.090Z,19.38
2022-10-22T11:49:56.469Z,15.98
2022-10-22T11:52:25.517Z,18.38
2022-10-22T11:54:55.237Z,19.75
2022-10-22T11:57:39.445Z,18.88
2022-10-22T12:00:11.487Z,16.45
2022-10-22T12:02:41.546Z,16.73
2022-10-22T12:05:19.305Z,15.97
2022-10-22T12:07:58.759Z,16.50
2022-10-22T12:10:55.552Z,14.38
2022-10-22T12:13:24.555Z,14.77
2022-10-22T12:15:57.205Z,9.48
2022-10-22T12:18:26.520Z,16.58
2022-10-22T12:20:54.348Z,12.77
2022-10-22T12:23:25.512Z,17.23
2022-10-22T12:25:53.827Z,8.10
2022-10-22T12:28:21.080Z,8.85
2022-10-22T12:30:48.368Z,8.13
2022-10-22T12:33:20.840Z,5.75
2022-10-22T12:38:48.969Z,8.15
2022-10-22T12:41:16.626Z,2.92
2022-10-22T12:43:44.005Z,5.18
2022-10-22T12:46:16.310Z,2.75
2022-10-22T12:48:44.771Z,2.25
2022-10-22T12:51:20.233Z,2.67
2022-10-22T12:53:50.045Z,2.38
2022-10-22T12:56:21.682Z,4.10
2022-10-22T12:58:52.353Z,2.45
2022-10-22T13:01:19.971Z,2.00
2022-10-22T13:03:52.411Z,1.88
2022-10-22T13:06:19.731Z,3.45
2022-10-22T13:09:02.183Z,3.15
2022-10-22T13:11:34.091Z,8.65
2022-10-22T13:16:30.900Z,5.57
2022-10-22T13:18:58.255Z,4.78
2022-10-22T13:21:27.463Z,5.25
2022-10-22T13:23:56.495Z,1.95
2022-10-22T13:26:26.043Z,2.13
2022-10-22T13:28:54.860Z,2.38
2022-10-22T13:31:26.679Z,4.82
2022-10-22T13:33:57.001Z,2.63
2022-10-22T13:36:24.709Z,2.00
2022-10-22T13:38:52.434Z,4.03
2022-10-22T13:41:20.707Z,1.70
2022-10-22T13:43:48.473Z,3.88
2022-10-22T13:46:16.236Z,2.78
2022-10-22T13:48:50.416Z,3.95
2022-10-22T13:51:19.595Z,2.50
2022-10-22T13:53:47.647Z,2.67
2022-10-22T13:56:19.072Z,5.10
2022-10-22T13:58:47.129Z,2.42
2022-10-22T14:01:25.476Z,2.10
2022-10-22T14:03:55.448Z,2.13
2022-10-22T14:06:23.437Z,5.65
2022-10-22T14:08:55.088Z,5.15
2022-10-22T14:11:22.702Z,2.67
2022-10-22T14:13:50.087Z,2.35
2022-10-22T14:16:19.758Z,4.05
2022-10-22T14:18:48.284Z,1.60
2022-10-22T14:21:16.797Z,2.38
2022-10-22T14:23:45.733Z,1.88
2022-10-22T14:26:20.836Z,4.95
2022-10-22T14:29:08.948Z,2.40
2022-10-22T14:31:37.432Z,3.78
2022-10-22T14:34:04.855Z,4.85
2022-10-22T14:36:32.503Z,3.58
2022-10-22T14:39:00.198Z,3.22
2022-10-22T14:41:28.677Z,3.60
2022-10-22T14:43:56.715Z,5.78
2022-10-22T14:46:24.096Z,7.63
2022-10-22T14:48:53.534Z,4.78
2022-10-22T14:51:23.066Z,4.93
2022-10-22T14:53:50.512Z,11.60
2022-10-22T14:56:22.630Z,4.93
2022-10-22T14:58:50.744Z,9.98
2022-10-22T15:01:18.197Z,6.78
2022-10-22T15:03:46.088Z,9.40
2022-10-22T15:06:14.133Z,8.82
2022-10-22T15:08:41.845Z,4.95
2022-10-22T15:11:11.364Z,5.43
2022-10-22T15:13:40.476Z,5.90
2022-10-22T15:16:08.897Z,5.90
2022-10-22T15:18:36.411Z,13.57
2022-10-22T15:21:05.795Z,3.50
2022-10-22T15:23:33.332Z,4.45
2022-10-22T15:26:00.707Z,2.50
2022-10-22T15:28:28.172Z,6.25
2022-10-22T15:30:57.346Z,3.53
2022-10-22T15:33:27.919Z,5.15
2022-10-22T15:35:55.775Z,6.40
2022-10-22T15:38:23.513Z,10.27
2022-10-22T15:40:50.962Z,4.03
2022-10-22T15:43:20.240Z,7.00
2022-10-22T15:45:55.341Z,4.10
2022-10-22T15:48:27.704Z,5.10
2022-10-22T15:50:55.461Z,3.30
2022-10-22T15:53:22.917Z,4.28
2022-10-22T15:55:50.393Z,2.95
2022-10-22T15:58:17.712Z,2.55
2022-10-22T16:00:45.066Z,5.53
2022-10-22T16:03:12.883Z,6.57
2022-10-22T16:05:40.235Z,2.10
2022-10-22T16:08:07.509Z,2.25
2022-10-22T16:10:37.665Z,2.28
2022-10-22T16:13:05.235Z,6.93
2022-10-22T16:15:32.567Z,5.65
2022-10-22T16:17:59.965Z,3.35
2022-10-22T16:20:27.416Z,3.65
2022-10-22T16:22:55.726Z,5.35
2022-10-22T16:25:23.090Z,5.20
2022-10-22T16:27:51.321Z,9.90
2022-10-22T16:30:19.095Z,14.27
2022-10-22T16:32:46.578Z,11.63
2022-10-22T16:35:13.925Z,11.38
2022-10-22T16:37:41.588Z,9.35
2022-10-22T16:40:10.523Z,7.50
2022-10-22T16:42:37.917Z,5.93
2022-10-22T16:45:05.443Z,3.55
2022-10-22T16:47:32.925Z,6.55
2022-10-22T16:50:00.967Z,7.93
2022-10-22T16:52:28.708Z,6.05
2022-10-22T16:54:58.222Z,8.30
2022-10-22T16:57:25.763Z,12.35
2022-10-22T16:59:53.467Z,21.83
2022-10-22T17:02:21.085Z,32.08
2022-10-22T17:04:48.704Z,19.00
2022-10-22T17:07:16.856Z,13.02
2022-10-22T17:09:44.147Z,7.93
2022-10-22T17:12:11.487Z,6.82
2022-10-22T17:14:41.354Z,6.93
2022-10-22T17:17:08.674Z,12.15
2022-10-22T17:19:38.722Z,7.78
2022-10-22T17:22:06.133Z,7.53
2022-10-22T17:24:33.419Z,9.18
2022-10-22T17:27:00.917Z,13.23
2022-10-22T17:29:28.252Z,6.65
2022-10-22T17:31:55.603Z,13.45
2022-10-22T17:34:23.142Z,9.15
2022-10-22T17:36:50.609Z,5.78
2022-10-22T17:39:18.687Z,5.90
2022-10-22T17:41:46.555Z,6.68
2022-10-22T17:44:14.206Z,10.40
2022-10-22T17:46:41.564Z,15.52
2022-10-22T17:49:13.353Z,11.20
2022-10-22T17:54:10.075Z,10.15
2022-10-22T17:56:40.233Z,12.05
2022-10-22T17:59:09.004Z,19.30
2022-10-22T18:01:37.729Z,16.13
2022-10-22T18:04:06.854Z,12.25
2022-10-22T18:06:35.527Z,13.52
2022-10-22T18:09:07.106Z,10.57
2022-10-22T18:11:36.443Z,15.05
2022-10-22T18:14:04.568Z,18.25
2022-10-22T18:16:31.850Z,19.75
2022-10-22T18:18:59.521Z,21.67
2022-10-22T18:21:28.160Z,20.95
2022-10-22T18:23:56.006Z,16.77
2022-10-22T18:26:26.677Z,13.15
2022-10-22T18:28:55.277Z,9.05
2022-10-22T18:31:23.997Z,9.93
2022-10-22T18:33:51.698Z,11.13
2022-10-22T18:36:20.669Z,12.02
2022-10-22T18:38:52.150Z,6.70
2022-10-22T18:41:20.411Z,6.60
2022-10-22T18:43:54.739Z,7.55
2022-10-22T18:46:22.232Z,8.52
2022-10-22T18:48:49.546Z,18.77
2022-10-22T18:51:17.010Z,11.30
2022-10-22T18:53:58.720Z,12.00
2022-10-22T18:56:32.658Z,9.15
2022-10-22T18:59:00.545Z,11.32
2022-10-22T19:01:31.718Z,5.93
2022-10-22T19:03:59.637Z,11.82
2022-10-22T19:06:34.386Z,15.20
2022-10-22T19:09:05.449Z,9.18
2022-10-22T19:11:33.171Z,11.13
2022-10-22T19:14:00.513Z,15.15
2022-10-22T19:16:28.537Z,25.50
2022-10-22T19:19:00.798Z,12.38
2022-10-22T19:21:28.665Z,25.10
2022-10-22T19:23:57.593Z,21.70
2022-10-22T19:26:26.928Z,24.90
2022-10-22T19:28:55.134Z,14.80
2022-10-22T19:31:23.430Z,10.23
2022-10-22T19:33:51.671Z,19.25
2022-10-22T19:36:19.759Z,18.80
2022-10-22T19:38:48.531Z,22.95
2022-10-22T19:41:18.245Z,28.88
2022-10-22T19:43:47.023Z,16.42
2022-10-22T19:46:15.000Z,24.17
2022-10-22T19:48:43.155Z,25.52
2022-10-22T19:51:19.276Z,9.38
2022-10-22T19:53:47.019Z,22.00
2022-10-22T19:56:17.827Z,22.23
2022-10-22T19:58:45.948Z,25.17
2022-10-22T20:01:15.261Z,16.05
2022-10-22T20:03:43.179Z,16.15
2022-10-22T20:06:11.103Z,10.43
2022-10-22T20:08:39.279Z,8.93
2022-10-22T20:11:08.562Z,10.40
2022-10-22T20:13:37.069Z,8.43
2022-10-22T20:16:05.510Z,9.45
2022-10-22T20:18:36.493Z,5.65
2022-10-22T20:21:07.964Z,10.73
2022-10-22T20:23:36.258Z,7.68
2022-10-22T20:26:05.811Z,12.27
2022-10-22T20:28:33.606Z,5.90
2022-10-22T20:31:01.009Z,8.80
2022-10-22T20:33:28.507Z,12.63
2022-10-22T20:36:02.274Z,15.18
2022-10-22T20:38:30.124Z,6.78
2022-10-22T20:41:05.543Z,17.95
2022-10-22T20:43:33.531Z,9.80
2022-10-22T20:46:01.403Z,6.68
2022-10-22T20:48:33.297Z,6.57
2022-10-22T20:51:01.898Z,7.30
2022-10-22T20:53:30.993Z,11.20
2022-10-22T20:56:00.260Z,11.02
2022-10-22T20:58:30.693Z,14.45
2022-10-22T21:00:58.749Z,14.77
2022-10-22T21:03:26.378Z,10.35
2022-10-22T21:05:58.771Z,11.93
2022-10-22T21:08:30.037Z,14.05
2022-10-22T21:11:01.741Z,10.02
2022-10-22T21:13:32.317Z,13.48
2022-10-22T21:16:00.321Z,8.02
2022-10-22T21:18:28.132Z,13.75
2022-10-22T21:20:56.203Z,9.90
2022-10-22T21:23:23.685Z,23.58
2022-10-22T21:25:58.525Z,13.85
2022-10-22T21:28:27.029Z,8.70
2022-10-22T21:30:55.248Z,18.10
2022-10-22T21:33:22.903Z,11.55
2022-10-22T21:35:54.610Z,18.17
2022-10-22T21:38:24.102Z,33.80
2022-10-22T21:40:51.716Z,14.82
2022-10-22T21:43:19.331Z,6.55
2022-10-22T21:45:47.237Z,12.43
2022-10-22T21:48:14.780Z,10.48
2022-10-22T21:50:45.487Z,8.10
2022-10-22T21:53:13.488Z,12.05
2022-10-22T21:55:41.442Z,6.13
2022-10-22T21:58:09.309Z,6.75
2022-10-22T22:00:38.448Z,7.78
2022-10-22T22:03:07.548Z,8.65
2022-10-22T22:05:34.958Z,6.70
2022-10-22T22:08:02.357Z,12.13
2022-10-22T22:10:30.513Z,18.10
2022-10-22T22:12:59.083Z,12.40
2022-10-22T22:15:26.646Z,23.05
2022-10-22T22:17:53.951Z,27.02
2022-10-22T22:20:21.447Z,25.50
2022-10-22T22:22:48.851Z,17.17
2022-10-22T22:25:16.214Z,27.85
2022-10-22T22:27:43.842Z,23.48
2022-10-22T22:30:11.827Z,11.60
2022-10-22T22:32:39.152Z,15.23
2022-10-22T22:35:06.989Z,10.15
2022-10-22T22:37:34.525Z,11.55
2022-10-22T22:40:02.181Z,9.73
2022-10-22T22:42:29.541Z,16.42
2022-10-22T22:44:56.890Z,28.40
2022-10-22T22:47:24.158Z,27.20
2022-10-22T22:49:51.471Z,6.72
2022-10-22T22:54:49.038Z,10.20
2022-10-22T22:57:16.321Z,13.63
2022-10-22T22:59:43.673Z,15.55
2022-10-22T23:02:11.131Z,9.73
2022-10-22T23:04:38.493Z,8.98
2022-10-22T23:07:06.070Z,4.22
2022-10-22T23:09:33.571Z,6.13
2022-10-22T23:12:00.881Z,7.13
2022-10-22T23:14:28.242Z,4.07
2022-10-22T23:16:55.542Z,12.15
2022-10-22T23:19:23.676Z,5.45
2022-10-22T23:21:52.702Z,24.67
2022-10-22T23:24:22.320Z,8.13
2022-10-22T23:26:50.438Z,8.70
2022-10-22T23:29:19.407Z,15.05
2022-10-22T23:31:47.119Z,16.75
2022-10-22T23:34:15.982Z,6.15
2022-10-22T23:36:43.704Z,7.35
2022-10-22T23:39:12.499Z,9.18
2022-10-22T23:41:40.359Z,4.45
2022-10-22T23:44:08.825Z,19.42
2022-10-22T23:46:38.451Z,11.90
2022-10-22T23:49:06.851Z,11.68
2022-10-22T23:51:34.323Z,8.38
2022-10-22T23:54:08.458Z,8.98
2022-10-22T23:56:35.859Z,7.80
2022-10-22T23:59:03.261Z,27.95
